Time;durP1;ratioP1;P1;durP2;ratioP2;P2;SDS_P1;SDS_P2;PMS_P1;PMS_P2;Temp;Humidity;BMP_temperature;BMP_pressure;BME280_temperature;BME280_humidity;BME280_pressure;Samples;Min_cycle;Max_cycle;Signal;HPM_P1;HPM_P2
2022/11/07 00:00:57;;;;;;;8.68;3.38;;;;;;;16.35;65.20;100615.28;5070546;28;20376;-71
2022/11/07 00:03:23;;;;;;;10.15;4.28;;;;;;;16.09;65.51;100608.16;5071716;28;20480;-72
2022/11/07 00:05:48;;;;;;;9.13;3.03;;;;;;;16.37;64.99;100616.63;5075150;28;20065;-72
2022/11/07 00:08:13;;;;;;;15.48;3.92;;;;;;;16.14;65.44;100605.44;5089830;28;20452;-71
2022/11/07 00:10:39;;;;;;;7.45;3.65;;;;;;;16.11;65.51;100616.84;5089213;28;20035;-72
2022/11/07 00:13:04;;;;;;;12.00;3.97;;;;;;;16.18;65.48;100614.66;5089092;28;20039;-73
2022/11/07 00:15:29;;;;;;;14.30;3.72;;;;;;;15.77;66.91;100627.28;5089599;28;20028;-74
2022/11/07 00:17:56;;;;;;;10.05;3.10;;;;;;;15.96;66.03;100622.22;5089127;28;20035;-72
2022/11/07 00:20:22;;;;;;;14.68;3.85;;;;;;;16.69;63.92;100625.38;5089504;28;20091;-71
2022/11/07 00:22:48;;;;;;;10.80;3.35;;;;;;;15.94;65.70;100622.47;5089282;28;20135;-72
2022/11/07 00:25:13;;;;;;;12.73;3.70;;;;;;;15.87;66.47;100630.03;5082528;28;20029;-72
2022/11/07 00:27:38;;;;;;;13.57;4.22;;;;;;;16.46;64.06;100625.03;5080228;28;20043;-70
2022/11/07 00:30:04;;;;;;;20.15;3.70;;;;;;;16.15;65.83;100624.19;5082090;28;20507;-71
2022/11/07 00:32:30;;;;;;;9.60;3.75;;;;;;;16.52;64.30;100621.28;5081520;28;20534;-71
2022/11/07 00:34:55;;;;;;;12.05;3.83;;;;;;;16.21;65.47;100622.28;5081332;28;20133;-72
2022/11/07 00:37:20;;;;;;;8.07;3.70;;;;;;;16.50;63.73;100620.75;5079925;28;20032;-71
2022/11/07 00:39:46;;;;;;;12.70;3.55;;;;;;;16.41;64.42;100636.69;5081609;28;20043;-72
2022/11/07 00:42:11;;;;;;;12.40;3.58;;;;;;;16.40;64.95;100637.78;5080267;28;20029;-72
2022/11/07 00:44:36;;;;;;;18.05;4.18;;;;;;;15.87;66.23;100642.75;5080318;28;20016;-70
2022/11/07 00:47:02;;;;;;;12.55;3.15;;;;;;;16.28;65.09;100645.34;5080605;28;20631;-71
2022/11/07 00:49:27;;;;;;;13.85;5.00;;;;;;;16.64;64.08;100638.13;5084406;28;20051;-72
2022/11/07 00:51:53;;;;;;;13.55;3.90;;;;;;;16.36;65.03;100631.28;5084351;28;20040;-72
2022/11/07 00:54:19;;;;;;;10.27;3.05;;;;;;;15.88;66.59;100647.91;5084598;28;20040;-75
2022/11/07 00:56:44;;;;;;;11.40;2.78;;;;;;;16.25;64.90;100645.91;5083287;28;20047;-71
2022/11/07 00:59:10;;;;;;;10.85;4.25;;;;;;;16.42;65.24;100649.19;5085094;28;20043;-73
2022/11/07 01:01:35;;;;;;;10.60;3.22;;;;;;;16.20;65.58;100648.59;5083933;28;20024;-72
2022/11/07 01:06:45;;;;;;;11.63;3.00;;;;;;;16.26;65.57;100652.94;5079538;28;20105;-71
2022/11/07 01:09:14;;;;;;;12.48;3.20;;;;;;;17.08;62.62;100657.44;5094319;28;20510;-72
2022/11/07 01:11:41;;;;;;;11.60;3.00;;;;;;;16.57;64.43;100664.69;5079491;28;20028;-72
2022/11/07 01:14:08;;;;;;;10.23;3.80;;;;;;;17.03;62.79;100662.84;5074721;28;20030;-71
2022/11/07 01:16:34;;;;;;;10.30;3.53;;;;;;;16.83;63.22;100662.81;5074025;28;20564;-70
2022/11/07 01:19:02;;;;;;;7.22;2.80;;;;;;;17.09;62.80;100657.16;5073919;28;20028;-71
2022/11/07 01:21:27;;;;;;;10.38;3.13;;;;;;;16.49;64.51;100657.91;5074128;28;20554;-72
2022/11/07 01:23:53;;;;;;;12.13;2.75;;;;;;;17.03;62.98;100658.22;5072490;28;20045;-71
2022/11/07 01:26:18;;;;;;;10.20;3.03;;;;;;;16.28;65.20;100672.47;5074113;28;20094;-70
2022/11/07 01:28:44;;;;;;;13.75;3.47;;;;;;;17.06;63.23;100675.88;5073851;28;20496;-72
2022/11/07 01:31:12;;;;;;;11.52;3.55;;;;;;;16.88;63.59;100665.56;5073576;28;20094;-71
2022/11/07 01:33:38;;;;;;;12.20;3.50;;;;;;;16.58;63.86;100679.91;5073698;28;20032;-70
2022/11/07 01:36:09;;;;;;;12.60;3.75;;;;;;;16.34;65.31;100684.97;5073703;28;20067;-72
2022/11/07 01:38:40;;;;;;;12.45;3.13;;;;;;;16.48;64.41;100696.13;5073824;28;20051;-72
2022/11/07 01:41:20;;;;;;;6.35;2.55;;;;;;;16.61;64.47;100672.03;5073911;28;20028;-71
2022/11/07 01:43:57;;;;;;;13.13;3.90;;;;;;;17.16;62.21;100682.13;5073359;28;20040;-70
2022/11/07 01:46:31;;;;;;;10.00;2.97;;;;;;;16.34;64.74;100690.38;5087941;28;20059;-70
2022/11/07 01:49:16;;;;;;;11.65;2.72;;;;;;;16.84;63.91;100688.91;5093690;28;20114;-70
2022/11/07 01:51:56;;;;;;;9.10;2.92;;;;;;;17.00;63.13;100688.63;5073186;28;20492;-68
2022/11/07 01:54:26;;;;;;;9.98;2.75;;;;;;;16.89;63.14;100697.03;5081594;28;20036;-69
2022/11/07 01:56:55;;;;;;;6.75;3.35;;;;;;;16.85;63.29;100690.50;5092986;28;20048;-70
2022/11/07 01:59:25;;;;;;;9.18;3.17;;;;;;;16.67;63.75;100697.28;5081649;28;20040;-70
2022/11/07 02:01:50;;;;;;;15.48;3.28;;;;;;;16.34;64.71;100689.56;5071815;28;20485;-70
2022/11/07 02:04:20;;;;;;;15.73;3.28;;;;;;;16.61;63.82;100693.75;5073135;28;20116;-72
2022/11/07 02:06:51;;;;;;;17.65;3.15;;;;;;;16.73;63.91;100693.47;5072892;28;20496;-69
2022/11/07 02:09:16;;;;;;;8.38;3.67;;;;;;;16.88;63.00;100693.53;5072819;28;20491;-71
2022/11/07 02:11:43;;;;;;;13.30;3.17;;;;;;;16.79;63.19;100705.16;5072754;28;20068;-71
2022/11/07 02:14:14;;;;;;;11.52;3.10;;;;;;;16.82;63.16;100708.19;5073320;28;20473;-70
2022/11/07 02:16:40;;;;;;;7.80;2.97;;;;;;;16.66;63.50;100695.66;5072884;28;20531;-71
2022/11/07 02:19:12;;;;;;;11.55;2.58;;;;;;;16.76;62.69;100703.00;5070788;28;20135;-70
2022/11/07 02:21:52;;;;;;;12.25;2.50;;;;;;;16.55;63.96;100711.09;5072728;28;20040;-70
2022/11/07 02:24:34;;;;;;;21.75;3.55;;;;;;;16.91;62.59;100697.56;5072933;28;20044;-70
2022/11/07 02:27:04;;;;;;;13.68;3.00;;;;;;;16.24;65.17;100720.19;5072783;28;20093;-71
2022/11/07 02:29:32;;;;;;;16.08;3.42;;;;;;;16.58;64.21;100717.88;5072613;28;20024;-70
2022/11/07 02:32:06;;;;;;;25.42;5.75;;;;;;;16.67;63.39;100702.69;5073175;28;20078;-70
2022/11/07 02:34:32;;;;;;;14.77;3.17;;;;;;;16.85;62.73;100721.19;5072385;28;20044;-71
2022/11/07 02:37:00;;;;;;;8.93;2.95;;;;;;;16.56;63.85;100701.06;5072381;28;20037;-71
2022/11/07 02:39:25;;;;;;;10.18;2.90;;;;;;;16.53;64.19;100707.81;5072273;28;20127;-72
2022/11/07 02:41:52;;;;;;;6.60;2.53;;;;;;;16.50;64.38;100711.09;5070912;28;20045;-70
2022/11/07 02:44:18;;;;;;;17.70;3.97;;;;;;;17.10;62.47;100712.28;5072797;28;20054;-73
2022/11/07 02:46:44;;;;;;;10.05;2.80;;;;;;;16.90;62.96;100713.06;5089797;28;20036;-71
2022/11/07 02:49:09;;;;;;;12.73;3.17;;;;;;;16.63;64.24;100698.88;5092496;28;20127;-71
2022/11/07 02:51:34;;;;;;;10.88;2.75;;;;;;;16.27;65.37;100702.56;5072563;28;20044;-70
2022/11/07 02:54:00;;;;;;;10.60;3.20;;;;;;;16.55;64.29;100694.81;5077235;28;20465;-71
2022/11/07 02:56:25;;;;;;;11.27;3.17;;;;;;;17.34;61.85;100697.84;5091272;28;20036;-70
2022/11/07 02:58:54;;;;;;;7.85;2.85;;;;;;;16.82;63.46;100708.19;5092406;28;20036;-72
2022/11/07 03:01:20;;;;;;;17.73;3.30;;;;;;;17.29;61.69;100703.31;5092412;28;20040;-70
2022/11/07 03:03:47;;;;;;;15.40;3.20;;;;;;;16.86;62.60;100694.88;5092199;28;20034;-71
2022/11/07 03:06:22;;;;;;;10.65;3.22;;;;;;;17.04;62.22;100702.50;5092177;28;20035;-71
2022/11/07 03:08:47;;;;;;;13.60;3.85;;;;;;;16.32;64.18;100721.56;5091009;28;20073;-71
2022/11/07 03:11:13;;;;;;;15.65;3.35;;;;;;;16.98;63.34;100714.44;5091927;28;20131;-71
2022/11/07 03:13:38;;;;;;;8.32;3.05;;;;;;;16.16;65.47;100717.97;5091937;28;20064;-71
2022/11/07 03:16:09;;;;;;;27.17;4.10;;;;;;;16.63;63.89;100707.84;5091758;28;20064;-70
2022/11/07 03:18:35;;;;;;;15.93;2.70;;;;;;;16.69;63.77;100712.22;5072610;28;20709;-71
2022/11/07 03:21:03;;;;;;;8.40;2.90;;;;;;;16.63;63.39;100705.13;5071556;28;20040;-71
2022/11/07 03:23:29;;;;;;;12.02;3.35;;;;;;;17.28;61.28;100704.38;5072011;28;20041;-70
2022/11/07 03:25:54;;;;;;;8.55;3.58;;;;;;;16.56;63.86;100711.91;5071844;28;20396;-70
2022/11/07 03:28:20;;;;;;;10.07;3.05;;;;;;;16.68;63.31;100710.59;5071753;28;20399;-72
2022/11/07 03:30:45;;;;;;;15.43;4.15;;;;;;;16.98;62.25;100717.94;5071550;28;20135;-70
2022/11/07 03:33:11;;;;;;;17.45;2.88;;;;;;;17.56;59.81;100719.34;5071619;28;20342;-71
2022/11/07 03:35:36;;;;;;;7.40;2.67;;;;;;;16.97;62.71;100716.31;5071889;28;20082;-71
2022/11/07 03:38:01;;;;;;;7.88;2.70;;;;;;;16.32;64.90;100722.38;5072033;28;20044;-70
2022/11/07 03:40:27;;;;;;;17.83;4.53;;;;;;;17.10;62.42;100723.13;5071445;28;20051;-72
2022/11/07 03:42:52;;;;;;;10.60;2.88;;;;;;;16.46;64.37;100725.41;5071729;28;20488;-70
2022/11/07 03:45:18;;;;;;;8.85;2.90;;;;;;;16.26;64.57;100717.19;5076996;28;20028;-69
2022/11/07 03:47:45;;;;;;;14.27;3.55;;;;;;;16.80;63.25;100725.81;5091857;28;20090;-70
2022/11/07 03:50:17;;;;;;;22.65;4.05;;;;;;;16.44;64.56;100722.16;5087631;28;20039;-71
2022/11/07 03:52:43;;;;;;;12.50;3.28;;;;;;;16.48;64.55;100715.09;5079266;28;20093;-69
2022/11/07 03:55:10;;;;;;;10.90;3.20;;;;;;;16.89;62.51;100716.84;5076702;28;20032;-71
2022/11/07 03:57:35;;;;;;;16.58;3.97;;;;;;;16.07;66.00;100718.75;5071374;28;20041;-68
2022/11/07 04:00:03;;;;;;;22.33;4.65;;;;;;;16.22;65.68;100724.22;5071746;28;20032;-71
2022/11/07 04:02:29;;;;;;;10.25;3.60;;;;;;;15.90;66.46;100727.06;5071726;28;20071;-70
2022/11/07 04:04:54;;;;;;;15.23;3.67;;;;;;;17.06;62.83;100722.84;5071418;28;20045;-71
2022/11/07 04:07:19;;;;;;;13.95;4.13;;;;;;;16.93;62.56;100722.56;5070066;28;20049;-70
2022/11/07 04:09:45;;;;;;;15.18;3.70;;;;;;;16.09;65.63;100727.44;5071270;28;20037;-71
2022/11/07 04:17:38;;;;;;;12.50;4.03;;;;;;;16.77;63.37;100729.84;5071229;28;20062;-70
2022/11/07 04:20:04;;;;;;;8.13;3.35;;;;;;;16.71;63.61;100732.84;5071305;28;20044;-69
2022/11/07 04:22:29;;;;;;;11.52;3.78;;;;;;;16.01;65.53;100733.34;5074610;28;20048;-70
2022/11/07 04:24:55;;;;;;;11.75;4.10;;;;;;;16.83;62.99;100728.78;5075088;28;20060;-70
2022/11/07 04:30:24;;;;;;;7.85;2.85;;;;;;;16.92;62.41;100729.09;5075017;28;20145;-69
2022/11/07 04:32:51;;;;;;;21.63;3.55;;;;;;;17.09;61.76;100735.88;5073395;28;20408;-70
2022/11/07 04:35:18;;;;;;;9.95;3.35;;;;;;;16.57;63.74;100727.91;5075237;28;20056;-71
2022/11/07 04:37:43;;;;;;;11.30;3.47;;;;;;;16.62;63.53;100721.69;5074703;28;20047;-71
2022/11/07 04:40:10;;;;;;;15.40;3.83;;;;;;;17.08;61.84;100722.59;5074544;28;20044;-71
2022/11/07 04:42:35;;;;;;;16.55;3.60;;;;;;;16.59;63.23;100739.31;5074361;28;20044;-70
2022/11/07 04:45:01;;;;;;;5.97;3.70;;;;;;;16.52;63.92;100736.06;5078163;28;20089;-71
2022/11/07 04:47:27;;;;;;;7.55;3.40;;;;;;;16.73;62.65;100728.75;5095071;28;20036;-72
2022/11/07 04:49:52;;;;;;;11.60;3.47;;;;;;;16.66;63.15;100741.78;5089223;28;20380;-70
2022/11/07 04:52:17;;;;;;;15.88;4.30;;;;;;;17.12;61.84;100734.53;5074416;28;20098;-71
2022/11/07 04:54:43;;;;;;;11.68;3.65;;;;;;;16.35;64.41;100735.41;5085667;28;20067;-71
2022/11/07 04:57:08;;;;;;;9.65;3.22;;;;;;;16.60;63.76;100738.25;5094405;28;20032;-71
2022/11/07 04:59:34;;;;;;;11.82;3.30;;;;;;;17.24;60.81;100737.78;5095055;28;20446;-71
2022/11/07 05:02:00;;;;;;;14.13;4.05;;;;;;;16.57;63.49;100743.38;5084715;28;20024;-71
2022/11/07 05:04:25;;;;;;;18.30;4.57;;;;;;;17.55;60.36;100745.69;5073947;28;20113;-71
2022/11/07 05:06:51;;;;;;;13.15;3.53;;;;;;;16.63;63.70;100737.69;5089445;28;20059;-69
2022/11/07 05:09:17;;;;;;;9.32;3.35;;;;;;;16.67;63.50;100741.50;5089902;28;20039;-70
2022/11/07 05:11:47;;;;;;;17.02;4.25;;;;;;;17.62;60.45;100742.69;5079381;28;20493;-71
2022/11/07 05:14:12;;;;;;;11.23;4.75;;;;;;;17.03;62.02;100747.00;5094622;28;20024;-70
2022/11/07 05:16:40;;;;;;;11.88;3.95;;;;;;;16.81;63.51;100752.66;5093962;28;20036;-71
2022/11/07 05:19:05;;;;;;;17.20;4.10;;;;;;;16.76;63.58;100746.41;5094447;28;20036;-71
2022/11/07 05:21:30;;;;;;;10.18;3.80;;;;;;;16.11;65.47;100746.97;5093990;28;20052;-71
2022/11/07 05:23:56;;;;;;;17.20;4.85;;;;;;;16.66;64.30;100758.06;5094141;28;20028;-69
2022/11/07 05:26:21;;;;;;;15.63;4.78;;;;;;;16.46;64.55;100760.66;5094320;28;20043;-70
2022/11/07 05:28:47;;;;;;;14.05;4.03;;;;;;;16.64;63.85;100769.19;5093943;28;20035;-71
2022/11/07 05:31:16;;;;;;;9.48;4.40;;;;;;;16.83;63.79;100771.38;5093862;28;20051;-71
2022/11/07 05:33:42;;;;;;;16.55;4.25;;;;;;;16.68;64.16;100769.47;5093055;28;20032;-70
2022/11/07 05:36:16;;;;;;;15.88;4.60;;;;;;;16.76;64.17;100762.69;5093934;28;20036;-70
2022/11/07 05:38:44;;;;;;;23.92;5.63;;;;;;;16.96;63.65;100766.25;5084498;28;20062;-72
2022/11/07 05:41:10;;;;;;;16.13;4.88;;;;;;;16.74;64.11;100762.97;5092028;28;20034;-70
2022/11/07 05:43:37;;;;;;;16.20;4.15;;;;;;;16.89;63.70;100760.28;5092866;28;20037;-70
2022/11/07 05:46:03;;;;;;;16.50;4.70;;;;;;;16.58;64.77;100772.16;5093726;28;20123;-70
2022/11/07 05:48:29;;;;;;;15.60;4.50;;;;;;;16.95;63.41;100764.66;5081390;28;20103;-69
2022/11/07 05:50:55;;;;;;;14.38;3.35;;;;;;;16.62;64.16;100775.97;5083113;28;20408;-71
2022/11/07 05:53:21;;;;;;;17.55;4.50;;;;;;;16.57;64.83;100759.66;5082663;28;20428;-71
2022/11/07 05:55:47;;;;;;;14.20;4.57;;;;;;;16.59;64.99;100766.44;5082862;28;20119;-71
2022/11/07 05:58:12;;;;;;;15.48;5.13;;;;;;;16.96;63.59;100760.81;5080382;28;20033;-69
2022/11/07 06:00:39;;;;;;;14.15;4.57;;;;;;;17.06;63.39;100760.84;5082061;28;20051;-72
2022/11/07 06:03:05;;;;;;;16.23;4.70;;;;;;;16.83;63.36;100757.81;5082542;28;20032;-70
2022/11/07 06:05:30;;;;;;;13.00;3.90;;;;;;;17.27;62.46;100757.09;5090141;28;20039;-70
2022/11/07 06:07:55;;;;;;;20.35;5.97;;;;;;;17.25;62.18;100761.16;5093620;28;20036;-71
2022/11/07 06:10:21;;;;;;;15.45;4.57;;;;;;;16.68;63.93;100751.28;5086655;28;20377;-71
2022/11/07 06:12:55;;;;;;;17.58;4.10;;;;;;;16.96;63.29;100758.13;5089825;28;20047;-70
2022/11/07 06:15:20;;;;;;;23.85;4.97;;;;;;;16.89;63.74;100757.56;5090233;28;20037;-71
2022/11/07 06:17:45;;;;;;;18.13;4.65;;;;;;;16.24;65.69;100765.44;5075301;28;20040;-70
2022/11/07 06:20:11;;;;;;;15.65;3.95;;;;;;;16.79;63.36;100770.28;5083144;28;20036;-71
2022/11/07 06:22:36;;;;;;;18.23;4.45;;;;;;;17.14;63.02;100768.47;5087043;28;20059;-71
2022/11/07 06:25:03;;;;;;;19.25;5.20;;;;;;;16.91;63.77;100757.28;5077845;28;20496;-71
2022/11/07 06:27:29;;;;;;;23.05;5.03;;;;;;;16.87;63.16;100765.16;5072611;28;20040;-71
2022/11/07 06:29:55;;;;;;;13.75;4.47;;;;;;;16.86;63.29;100771.69;5072487;28;20119;-71
2022/11/07 06:32:20;;;;;;;14.45;4.13;;;;;;;17.50;61.47;100770.16;5073295;28;20342;-72
2022/11/07 06:34:46;;;;;;;31.55;5.22;;;;;;;16.99;62.83;100765.75;5072483;28;20101;-73
2022/11/07 06:37:12;;;;;;;10.43;4.55;;;;;;;16.30;65.57;100770.66;5072369;28;20024;-71
2022/11/07 06:39:37;;;;;;;11.35;3.80;;;;;;;16.97;63.39;100770.63;5073747;28;20028;-70
2022/11/07 06:42:02;;;;;;;17.23;5.47;;;;;;;16.80;63.69;100780.09;5092472;28;20028;-70
2022/11/07 06:44:28;;;;;;;23.05;5.25;;;;;;;16.79;63.63;100773.81;5092468;28;20028;-71
2022/11/07 06:46:53;;;;;;;13.90;4.07;;;;;;;17.16;62.30;100779.09;5092270;28;20036;-71
2022/11/07 06:49:19;;;;;;;23.52;4.97;;;;;;;17.03;63.16;100785.00;5092185;28;20118;-69
2022/11/07 06:51:44;;;;;;;29.02;4.38;;;;;;;17.09;63.24;100786.66;5086417;28;20051;-71
2022/11/07 06:54:10;;;;;;;19.23;4.38;;;;;;;16.69;63.99;100790.09;5079953;28;20089;-72
2022/11/07 06:56:35;;;;;;;14.63;5.30;;;;;;;17.18;62.54;100790.47;5080535;28;20029;-70
2022/11/07 06:59:02;;;;;;;13.85;3.53;;;;;;;17.03;62.54;100795.88;5074227;28;20054;-71
2022/11/07 07:01:28;;;;;;;18.77;4.68;;;;;;;17.18;62.43;100798.59;5073496;28;20036;-71
2022/11/07 07:03:53;;;;;;;17.67;3.78;;;;;;;16.98;62.77;100793.16;5092154;28;20032;-71
2022/11/07 07:06:18;;;;;;;14.52;4.00;;;;;;;17.43;61.33;100796.72;5092104;28;20029;-71
2022/11/07 07:08:44;;;;;;;16.23;4.25;;;;;;;16.88;63.52;100793.97;5092145;28;20036;-71
2022/11/07 07:11:12;;;;;;;19.65;3.78;;;;;;;16.90;63.39;100805.38;5092111;28;20518;-71
2022/11/07 07:13:37;;;;;;;17.50;3.78;;;;;;;17.10;62.44;100810.03;5091877;28;20092;-70
2022/11/07 07:16:04;;;;;;;10.93;3.50;;;;;;;17.40;61.85;100810.03;5082922;28;20040;-69
2022/11/07 07:18:30;;;;;;;15.90;5.25;;;;;;;17.71;60.78;100811.72;5071613;28;20034;-69
2022/11/07 07:21:06;;;;;;;18.35;4.95;;;;;;;16.91;63.31;100817.84;5071759;28;20025;-72
2022/11/07 07:23:33;;;;;;;22.35;4.80;;;;;;;17.14;62.95;100805.69;5071463;28;20404;-70
2022/11/07 07:26:00;;;;;;;14.27;4.45;;;;;;;17.01;63.29;100808.91;5072188;28;20064;-70
2022/11/07 07:28:25;;;;;;;16.95;3.70;;;;;;;17.67;61.26;100818.78;5086325;28;20040;-72
2022/11/07 07:30:50;;;;;;;21.92;4.13;;;;;;;17.57;61.81;100818.81;5091640;28;20085;-71
2022/11/07 07:33:16;;;;;;;13.98;4.50;;;;;;;17.08;62.73;100820.34;5091617;28;20031;-70
2022/11/07 07:35:41;;;;;;;15.02;3.53;;;;;;;17.42;61.84;100826.88;5091345;28;20537;-70
2022/11/07 07:38:06;;;;;;;16.85;3.63;;;;;;;17.46;61.87;100820.66;5091937;28;20035;-71
2022/11/07 07:40:32;;;;;;;16.52;3.35;;;;;;;17.53;61.06;100828.59;5091777;28;20562;-71
2022/11/07 07:42:57;;;;;;;23.00;4.40;;;;;;;17.40;61.68;100827.16;5089975;28;20035;-71
2022/11/07 07:45:22;;;;;;;14.13;3.50;;;;;;;17.10;62.25;100824.41;5091455;28;20035;-70
2022/11/07 07:47:48;;;;;;;10.40;2.67;;;;;;;17.41;61.86;100836.16;5091558;28;20384;-70
2022/11/07 07:50:13;;;;;;;13.32;3.17;;;;;;;17.34;61.93;100822.81;5091742;28;20053;-71
2022/11/07 07:52:39;;;;;;;8.88;2.35;;;;;;;17.03;62.63;100826.56;5091382;28;20039;-71
2022/11/07 07:55:07;;;;;;;22.83;3.33;;;;;;;17.91;60.32;100821.75;5091650;28;20044;-69
2022/11/07 07:57:38;;;;;;;16.60;4.28;;;;;;;17.37;61.87;100833.16;5095613;28;20379;-70
2022/11/07 08:00:03;;;;;;;20.92;5.22;;;;;;;17.66;61.50;100833.47;5095478;28;20064;-70
2022/11/07 08:02:29;;;;;;;15.05;3.70;;;;;;;17.95;59.97;100831.81;5096154;28;20067;-71
2022/11/07 08:04:54;;;;;;;19.35;3.20;;;;;;;17.29;61.90;100836.41;5095571;28;20078;-70
2022/11/07 08:07:19;;;;;;;18.35;3.75;;;;;;;16.99;63.20;100840.94;5095326;28;20040;-71
2022/11/07 08:09:45;;;;;;;10.05;3.10;;;;;;;17.69;60.76;100835.63;5095613;28;20032;-70
2022/11/07 08:12:11;;;;;;;14.90;3.05;;;;;;;17.40;61.43;100826.34;5095034;28;20454;-69
2022/11/07 08:14:36;;;;;;;16.58;3.70;;;;;;;17.24;61.99;100840.97;5095111;28;20028;-70
2022/11/07 08:17:02;;;;;;;22.10;3.28;;;;;;;18.17;59.28;100843.22;5078624;28;20029;-71
2022/11/07 08:19:28;;;;;;;14.55;3.17;;;;;;;18.16;59.28;100840.78;5074928;28;20102;-70
2022/11/07 08:21:53;;;;;;;12.85;3.03;;;;;;;17.39;61.80;100849.97;5083557;28;20032;-70
2022/11/07 08:24:19;;;;;;;17.25;2.63;;;;;;;17.41;61.59;100855.16;5085674;28;20043;-71
2022/11/07 08:26:44;;;;;;;18.90;4.25;;;;;;;17.34;61.44;100860.03;5083634;28;20040;-71
2022/11/07 08:29:10;;;;;;;14.02;2.88;;;;;;;17.59;60.89;100859.28;5084747;28;20024;-73
2022/11/07 08:31:35;;;;;;;17.63;3.13;;;;;;;17.39;61.16;100851.91;5084702;28;20037;-70
2022/11/07 08:34:01;;;;;;;18.58;2.80;;;;;;;17.80;60.53;100863.63;5086080;28;20025;-71
2022/11/07 08:36:27;;;;;;;16.73;4.00;;;;;;;17.93;59.51;100869.34;5084361;28;20043;-69
2022/11/07 08:38:52;;;;;;;19.55;4.15;;;;;;;17.31;61.83;100866.81;5084922;28;20047;-70
2022/11/07 08:41:18;;;;;;;12.05;3.58;;;;;;;17.60;60.84;100877.22;5084099;28;20028;-70
2022/11/07 08:43:44;;;;;;;10.73;2.90;;;;;;;17.46;61.97;100875.00;5082715;28;20051;-70
2022/11/07 08:46:09;;;;;;;12.43;3.20;;;;;;;17.67;60.92;100881.28;5083494;28;20547;-70
2022/11/07 08:48:35;;;;;;;11.40;2.83;;;;;;;18.04;60.12;100884.53;5085180;28;20055;-71
2022/11/07 08:51:02;;;;;;;22.35;5.10;;;;;;;17.62;61.24;100886.72;5084875;28;20047;-68
2022/11/07 08:53:28;;;;;;;14.13;3.33;;;;;;;18.09;59.79;100906.31;5084568;28;20029;-70
2022/11/07 08:56:05;;;;;;;15.68;3.25;;;;;;;17.92;60.30;100896.81;5081375;28;20040;-69
2022/11/07 08:58:31;;;;;;;17.25;3.05;;;;;;;18.07;60.46;100889.44;5084149;28;20123;-70
2022/11/07 09:00:56;;;;;;;16.67;3.22;;;;;;;17.73;61.15;100907.38;5082604;28;20454;-71
2022/11/07 09:03:22;;;;;;;18.77;3.10;;;;;;;17.65;61.75;100897.03;5084218;28;20028;-70
2022/11/07 09:05:47;;;;;;;10.15;2.55;;;;;;;18.25;60.17;100886.19;5083713;28;20029;-68
2022/11/07 09:08:13;;;;;;;16.55;2.80;;;;;;;19.03;57.57;100887.31;5085981;28;20016;-71
2022/11/07 09:10:38;;;;;;;14.63;2.72;;;;;;;18.26;59.75;100897.84;5087900;28;20032;-71
2022/11/07 09:13:04;;;;;;;13.15;3.03;;;;;;;17.98;60.60;100920.19;5084807;28;20044;-71
2022/11/07 09:15:29;;;;;;;22.42;4.43;;;;;;;18.34;59.28;100897.28;5092696;28;20496;-71
2022/11/07 09:17:55;;;;;;;21.30;3.58;;;;;;;18.74;58.22;100890.97;5094208;28;20044;-70
2022/11/07 09:20:20;;;;;;;12.23;3.55;;;;;;;18.40;59.59;100899.75;5094643;28;20032;-70
2022/11/07 09:22:46;;;;;;;12.23;2.55;;;;;;;18.10;60.29;100901.69;5093662;28;20055;-70
2022/11/07 09:25:12;;;;;;;14.25;2.72;;;;;;;18.54;59.40;100899.19;5093927;28;20125;-71
2022/11/07 09:27:37;;;;;;;10.63;2.58;;;;;;;18.47;59.45;100904.94;5093654;28;20038;-70
2022/11/07 09:30:04;;;;;;;12.60;2.40;;;;;;;18.67;58.75;100901.34;5076156;28;20021;-70
2022/11/07 09:32:29;;;;;;;10.63;2.42;;;;;;;18.72;58.61;100909.50;5073452;28;20041;-71
2022/11/07 09:34:55;;;;;;;11.40;3.10;;;;;;;19.22;57.25;100899.19;5073933;28;20366;-70
2022/11/07 09:37:20;;;;;;;13.88;3.05;;;;;;;18.18;60.50;100907.38;5073455;28;20036;-68
2022/11/07 09:39:46;;;;;;;10.73;2.70;;;;;;;18.04;60.39;100905.50;5073426;28;20488;-69
2022/11/07 09:42:30;;;;;;;8.30;2.97;;;;;;;18.40;59.96;100899.75;5087197;28;20144;-69
2022/11/07 09:45:00;;;;;;;10.70;2.03;;;;;;;18.34;59.83;100908.19;5081841;28;20498;-70
2022/11/07 09:47:44;;;;;;;13.20;2.38;;;;;;;17.94;61.55;100924.53;5083604;28;20121;-68
2022/11/07 09:50:17;;;;;;;13.65;3.17;;;;;;;17.96;61.42;100923.19;5084086;28;20060;-69
2022/11/07 09:52:53;;;;;;;13.25;3.20;;;;;;;18.47;60.27;100924.00;5082608;28;20040;-72
2022/11/07 09:55:34;;;;;;;14.23;3.65;;;;;;;18.48;59.94;100935.66;5082056;28;20090;-71
2022/11/07 09:58:11;;;;;;;16.35;2.45;;;;;;;18.93;58.92;100939.09;5082148;28;20563;-70
2022/11/07 10:00:36;;;;;;;13.18;2.63;;;;;;;18.96;58.74;100929.56;5081719;28;20491;-71
2022/11/07 10:03:02;;;;;;;9.10;2.65;;;;;;;18.34;60.14;100932.66;5082362;28;20094;-71
2022/11/07 10:05:45;;;;;;;7.55;1.98;;;;;;;19.20;58.61;100925.91;5082728;28;20028;-70
2022/11/07 10:08:24;;;;;;;11.65;2.08;;;;;;;18.82;58.76;100942.13;5083598;28;20492;-68
2022/11/07 10:11:15;;;;;;;15.63;3.33;;;;;;;19.02;58.14;100940.16;5083275;28;20091;-73
2022/11/07 10:13:52;;;;;;;13.80;2.20;;;;;;;19.07;57.89;100945.59;5081729;28;20032;-71
2022/11/07 10:16:30;;;;;;;8.68;2.70;;;;;;;18.22;61.00;100932.94;5083116;28;20626;-72
2022/11/07 10:19:19;;;;;;;12.25;2.38;;;;;;;18.39;60.60;100958.00;5083239;28;20128;-69
2022/11/07 10:22:03;;;;;;;18.25;3.28;;;;;;;18.66;59.57;100949.53;5082513;28;20035;-69
2022/11/07 10:24:51;;;;;;;24.65;4.97;;;;;;;18.96;58.89;100957.63;5084201;28;20400;-70
2022/11/07 10:27:19;;;;;;;16.10;3.30;;;;;;;18.85;58.95;100956.00;5081945;28;20043;-70
2022/11/07 10:29:49;;;;;;;14.65;3.33;;;;;;;18.79;59.42;100959.84;5089035;28;20372;-72
2022/11/07 10:32:43;;;;;;;12.70;2.80;;;;;;;18.68;59.85;100950.06;5083400;28;20028;-71
2022/11/07 10:35:11;;;;;;;20.02;3.42;;;;;;;18.97;59.23;100966.59;5074540;28;20484;-70
2022/11/07 10:37:36;;;;;;;14.15;3.10;;;;;;;18.35;61.14;100964.25;5072249;28;20041;-70
2022/11/07 10:40:17;;;;;;;18.50;2.83;;;;;;;19.10;59.01;100966.00;5072304;28;20055;-70
2022/11/07 10:42:45;;;;;;;11.50;2.42;;;;;;;18.77;59.86;100978.34;5070908;28;20143;-70
2022/11/07 10:45:13;;;;;;;14.15;2.97;;;;;;;18.96;59.40;100971.25;5072074;28;20028;-69
2022/11/07 10:47:40;;;;;;;12.80;3.30;;;;;;;18.98;59.52;100968.22;5072395;28;20142;-71
2022/11/07 10:50:19;;;;;;;33.38;4.88;;;;;;;19.26;58.78;100973.81;5079551;28;20008;-70
2022/11/07 10:52:55;;;;;;;13.63;3.05;;;;;;;19.15;58.73;100969.53;5092310;28;20036;-70
2022/11/07 10:55:22;;;;;;;13.45;3.10;;;;;;;19.41;57.64;100967.53;5092375;28;20133;-69
2022/11/07 10:58:10;;;;;;;13.15;2.08;;;;;;;19.13;58.19;100976.34;5092164;28;20055;-69
2022/11/07 11:00:39;;;;;;;15.27;3.35;;;;;;;19.19;58.36;100970.59;5091587;28;20526;-70
2022/11/07 11:03:20;;;;;;;18.02;4.00;;;;;;;19.69;57.22;100958.66;5092214;28;20085;-71
2022/11/07 11:05:46;;;;;;;19.75;4.25;;;;;;;18.80;59.61;100964.19;5092204;28;20035;-72
2022/11/07 11:08:18;;;;;;;16.67;3.55;;;;;;;18.52;60.33;100980.28;5092507;28;20027;-73
2022/11/07 11:10:45;;;;;;;17.77;4.15;;;;;;;19.39;58.64;100968.91;5087772;28;20040;-70
2022/11/07 11:13:31;;;;;;;14.77;2.95;;;;;;;19.66;57.50;100953.75;5083123;28;20040;-69
2022/11/07 11:16:05;;;;;;;14.07;4.00;;;;;;;19.66;57.51;100959.22;5079845;28;20537;-70
2022/11/07 11:18:31;;;;;;;15.55;2.88;;;;;;;19.14;58.78;100969.81;5091965;28;20047;-71
2022/11/07 11:21:02;;;;;;;19.02;3.33;;;;;;;19.25;58.81;100969.50;5091606;28;20024;-72
2022/11/07 11:23:34;;;;;;;;;;;;;;;19.97;56.57;100973.44;5092632;28;20113;-72
2022/11/07 11:26:07;;;;;;;16.42;2.55;;;;;;;20.24;55.82;100975.75;5092233;28;20381;-71
2022/11/07 11:28:45;;;;;;;11.73;2.45;;;;;;;19.72;56.98;100974.44;5091649;28;20040;-69
2022/11/07 11:31:14;;;;;;;9.40;3.17;;;;;;;19.59;57.24;100961.44;5077811;28;20033;-69
2022/11/07 11:33:47;;;;;;;14.07;3.08;;;;;;;19.75;56.54;100960.22;5071659;28;20110;-69